sensor_id;sensor_type;location;lat;lon;timestamp;P1;durP1;ratioP1;P2;durP2;ratioP2
69750;SDS011;57335;52.288;6.056;2022-11-20T00:00:05;22.08;;;7.80;;
69750;SDS011;57335;52.288;6.056;2022-11-20T00:02:32;22.95;;;9.10;;
69750;SDS011;57335;52.288;6.056;2022-11-20T00:04:58;22.17;;;8.85;;
69750;SDS011;57335;52.288;6.056;2022-11-20T00:07:24;21.63;;;8.02;;
69750;SDS011;57335;52.288;6.056;2022-11-20T00:09:51;21.63;;;8.93;;
69750;SDS011;57335;52.288;6.056;2022-11-20T00:12:17;19.13;;;7.72;;
69750;SDS011;57335;52.288;6.056;2022-11-20T00:14:43;23.35;;;9.98;;
69750;SDS011;57335;52.288;6.056;2022-11-20T00:17:10;20.38;;;7.70;;
69750;SDS011;57335;52.288;6.056;2022-11-20T00:19:37;22.60;;;8.40;;
69750;SDS011;57335;52.288;6.056;2022-11-20T00:22:03;24.45;;;9.02;;
69750;SDS011;57335;52.288;6.056;2022-11-20T00:24:30;19.70;;;7.05;;
69750;SDS011;57335;52.288;6.056;2022-11-20T00:26:56;17.75;;;6.60;;
69750;SDS011;57335;52.288;6.056;2022-11-20T00:29:22;21.90;;;8.05;;
69750;SDS011;57335;52.288;6.056;2022-11-20T00:31:48;20.73;;;8.40;;
69750;SDS011;57335;52.288;6.056;2022-11-20T00:34:15;20.30;;;7.75;;
69750;SDS011;57335;52.288;6.056;2022-11-20T00:36:41;20.48;;;9.23;;
69750;SDS011;57335;52.288;6.056;2022-11-20T00:39:07;21.38;;;8.55;;
69750;SDS011;57335;52.288;6.056;2022-11-20T00:41:34;23.95;;;9.23;;
69750;SDS011;57335;52.288;6.056;2022-11-20T00:44:00;23.13;;;9.35;;
69750;SDS011;57335;52.288;6.056;2022-11-20T00:46:27;22.83;;;9.55;;
69750;SDS011;57335;52.288;6.056;2022-11-20T00:48:54;22.13;;;8.35;;
69750;SDS011;57335;52.288;6.056;2022-11-20T00:51:21;19.92;;;9.02;;
69750;SDS011;57335;52.288;6.056;2022-11-20T00:53:50;22.48;;;8.25;;
69750;SDS011;57335;52.288;6.056;2022-11-20T00:56:17;19.63;;;7.70;;
69750;SDS011;57335;52.288;6.056;2022-11-20T00:58:45;19.65;;;8.30;;
69750;SDS011;57335;52.288;6.056;2022-11-20T01:03:50;20.60;;;8.23;;
69750;SDS011;57335;52.288;6.056;2022-11-20T01:06:19;23.52;;;8.98;;
69750;SDS011;57335;52.288;6.056;2022-11-20T01:08:47;22.45;;;8.88;;
69750;SDS011;57335;52.288;6.056;2022-11-20T01:11:15;20.30;;;8.57;;
69750;SDS011;57335;52.288;6.056;2022-11-20T01:13:44;22.17;;;8.50;;
69750;SDS011;57335;52.288;6.056;2022-11-20T01:16:16;21.80;;;8.13;;
69750;SDS011;57335;52.288;6.056;2022-11-20T01:18:50;20.92;;;8.43;;
69750;SDS011;57335;52.288;6.056;2022-11-20T01:21:23;22.40;;;8.75;;
69750;SDS011;57335;52.288;6.056;2022-11-20T01:24:00;20.73;;;8.35;;
69750;SDS011;57335;52.288;6.056;2022-11-20T01:26:29;24.80;;;10.25;;
69750;SDS011;57335;52.288;6.056;2022-11-20T01:28:57;25.13;;;8.70;;
69750;SDS011;57335;52.288;6.056;2022-11-20T01:31:34;22.05;;;9.25;;
69750;SDS011;57335;52.288;6.056;2022-11-20T01:34:10;21.08;;;8.75;;
69750;SDS011;57335;52.288;6.056;2022-11-20T01:36:39;22.73;;;10.43;;
69750;SDS011;57335;52.288;6.056;2022-11-20T01:39:14;25.60;;;10.23;;
69750;SDS011;57335;52.288;6.056;2022-11-20T01:41:42;25.80;;;10.45;;
69750;SDS011;57335;52.288;6.056;2022-11-20T01:44:10;21.02;;;9.00;;
69750;SDS011;57335;52.288;6.056;2022-11-20T01:46:38;20.42;;;9.05;;
69750;SDS011;57335;52.288;6.056;2022-11-20T01:49:11;23.85;;;9.40;;
69750;SDS011;57335;52.288;6.056;2022-11-20T01:51:50;21.35;;;8.52;;
69750;SDS011;57335;52.288;6.056;2022-11-20T01:54:24;22.90;;;9.38;;
69750;SDS011;57335;52.288;6.056;2022-11-20T01:56:56;20.50;;;7.88;;
69750;SDS011;57335;52.288;6.056;2022-11-20T01:59:25;23.75;;;8.98;;
69750;SDS011;57335;52.288;6.056;2022-11-20T02:01:54;25.33;;;9.82;;
69750;SDS011;57335;52.288;6.056;2022-11-20T02:04:21;21.13;;;8.90;;
69750;SDS011;57335;52.288;6.056;2022-11-20T02:06:50;20.52;;;8.70;;
69750;SDS011;57335;52.288;6.056;2022-11-20T02:09:21;21.00;;;8.27;;
69750;SDS011;57335;52.288;6.056;2022-11-20T02:11:48;22.73;;;10.27;;
69750;SDS011;57335;52.288;6.056;2022-11-20T02:14:15;19.08;;;8.52;;
69750;SDS011;57335;52.288;6.056;2022-11-20T02:16:44;19.75;;;7.22;;
69750;SDS011;57335;52.288;6.056;2022-11-20T02:19:19;19.55;;;7.68;;
69750;SDS011;57335;52.288;6.056;2022-11-20T02:24:39;23.85;;;8.50;;
69750;SDS011;57335;52.288;6.056;2022-11-20T02:27:09;20.10;;;8.35;;
69750;SDS011;57335;52.288;6.056;2022-11-20T02:29:45;21.92;;;8.82;;
69750;SDS011;57335;52.288;6.056;2022-11-20T02:32:20;20.70;;;9.23;;
69750;SDS011;57335;52.288;6.056;2022-11-20T02:34:51;19.17;;;8.48;;
69750;SDS011;57335;52.288;6.056;2022-11-20T02:37:18;20.17;;;7.53;;
69750;SDS011;57335;52.288;6.056;2022-11-20T02:39:46;21.92;;;9.27;;
69750;SDS011;57335;52.288;6.056;2022-11-20T02:42:15;18.92;;;7.40;;
69750;SDS011;57335;52.288;6.056;2022-11-20T02:44:41;20.58;;;7.60;;
69750;SDS011;57335;52.288;6.056;2022-11-20T02:47:08;20.08;;;9.02;;
69750;SDS011;57335;52.288;6.056;2022-11-20T02:49:34;23.73;;;10.32;;
69750;SDS011;57335;52.288;6.056;2022-11-20T02:52:00;22.83;;;9.38;;
69750;SDS011;57335;52.288;6.056;2022-11-20T02:54:27;25.52;;;9.10;;
69750;SDS011;57335;52.288;6.056;2022-11-20T02:56:53;23.60;;;9.85;;
69750;SDS011;57335;52.288;6.056;2022-11-20T02:59:20;28.15;;;9.32;;
69750;SDS011;57335;52.288;6.056;2022-11-20T03:01:46;20.65;;;8.50;;
69750;SDS011;57335;52.288;6.056;2022-11-20T03:04:13;20.60;;;8.18;;
69750;SDS011;57335;52.288;6.056;2022-11-20T03:06:39;22.23;;;8.55;;
69750;SDS011;57335;52.288;6.056;2022-11-20T03:09:05;22.02;;;8.60;;
69750;SDS011;57335;52.288;6.056;2022-11-20T03:11:32;22.85;;;9.05;;
69750;SDS011;57335;52.288;6.056;2022-11-20T03:14:01;22.17;;;8.93;;
69750;SDS011;57335;52.288;6.056;2022-11-20T03:16:28;21.35;;;8.23;;
69750;SDS011;57335;52.288;6.056;2022-11-20T03:18:56;20.35;;;8.80;;
69750;SDS011;57335;52.288;6.056;2022-11-20T03:21:23;20.58;;;8.43;;
69750;SDS011;57335;52.288;6.056;2022-11-20T03:23:49;20.00;;;7.93;;
69750;SDS011;57335;52.288;6.056;2022-11-20T03:28:47;21.85;;;8.10;;
69750;SDS011;57335;52.288;6.056;2022-11-20T03:31:22;19.98;;;8.05;;
69750;SDS011;57335;52.288;6.056;2022-11-20T03:33:50;21.48;;;8.45;;
69750;SDS011;57335;52.288;6.056;2022-11-20T03:36:17;16.75;;;7.70;;
69750;SDS011;57335;52.288;6.056;2022-11-20T03:38:45;23.40;;;8.60;;
69750;SDS011;57335;52.288;6.056;2022-11-20T03:41:13;20.30;;;8.52;;
69750;SDS011;57335;52.288;6.056;2022-11-20T03:43:41;23.23;;;8.52;;
69750;SDS011;57335;52.288;6.056;2022-11-20T03:46:07;20.00;;;7.88;;
69750;SDS011;57335;52.288;6.056;2022-11-20T03:48:34;25.10;;;8.68;;
69750;SDS011;57335;52.288;6.056;2022-11-20T03:51:07;22.45;;;9.18;;
69750;SDS011;57335;52.288;6.056;2022-11-20T03:53:45;24.10;;;7.57;;
69750;SDS011;57335;52.288;6.056;2022-11-20T03:56:13;20.58;;;7.53;;
69750;SDS011;57335;52.288;6.056;2022-11-20T03:58:41;20.92;;;8.23;;
69750;SDS011;57335;52.288;6.056;2022-11-20T04:01:08;20.75;;;9.05;;
69750;SDS011;57335;52.288;6.056;2022-11-20T04:03:36;23.67;;;8.60;;
69750;SDS011;57335;52.288;6.056;2022-11-20T04:06:07;20.17;;;8.77;;
69750;SDS011;57335;52.288;6.056;2022-11-20T04:08:36;22.88;;;9.57;;
69750;SDS011;57335;52.288;6.056;2022-11-20T04:13:39;19.67;;;7.85;;
69750;SDS011;57335;52.288;6.056;2022-11-20T04:16:06;22.20;;;7.65;;
69750;SDS011;57335;52.288;6.056;2022-11-20T04:18:34;22.98;;;8.27;;
69750;SDS011;57335;52.288;6.056;2022-11-20T04:21:01;17.38;;;7.75;;
69750;SDS011;57335;52.288;6.056;2022-11-20T04:23:28;22.33;;;7.85;;
69750;SDS011;57335;52.288;6.056;2022-11-20T04:28:21;18.67;;;7.88;;
69750;SDS011;57335;52.288;6.056;2022-11-20T04:30:47;20.35;;;8.05;;
69750;SDS011;57335;52.288;6.056;2022-11-20T04:33:13;21.95;;;8.35;;
69750;SDS011;57335;52.288;6.056;2022-11-20T04:35:40;22.33;;;8.38;;
69750;SDS011;57335;52.288;6.056;2022-11-20T04:38:06;21.15;;;8.70;;
69750;SDS011;57335;52.288;6.056;2022-11-20T04:40:33;22.17;;;8.50;;
69750;SDS011;57335;52.288;6.056;2022-11-20T04:42:59;22.92;;;9.23;;
69750;SDS011;57335;52.288;6.056;2022-11-20T04:45:25;20.48;;;8.45;;
69750;SDS011;57335;52.288;6.056;2022-11-20T04:47:52;21.10;;;8.48;;
69750;SDS011;57335;52.288;6.056;2022-11-20T04:50:18;20.73;;;8.07;;
69750;SDS011;57335;52.288;6.056;2022-11-20T04:52:45;20.85;;;8.75;;
69750;SDS011;57335;52.288;6.056;2022-11-20T04:55:11;25.85;;;9.52;;
69750;SDS011;57335;52.288;6.056;2022-11-20T04:57:37;24.05;;;8.35;;
69750;SDS011;57335;52.288;6.056;2022-11-20T05:00:04;22.05;;;8.18;;
69750;SDS011;57335;52.288;6.056;2022-11-20T05:02:31;21.17;;;8.45;;
69750;SDS011;57335;52.288;6.056;2022-11-20T05:04:57;20.80;;;8.45;;
69750;SDS011;57335;52.288;6.056;2022-11-20T05:07:23;21.90;;;9.45;;
69750;SDS011;57335;52.288;6.056;2022-11-20T05:09:50;20.95;;;8.02;;
69750;SDS011;57335;52.288;6.056;2022-11-20T05:12:16;20.55;;;8.25;;
69750;SDS011;57335;52.288;6.056;2022-11-20T05:14:42;22.23;;;8.80;;
69750;SDS011;57335;52.288;6.056;2022-11-20T05:17:10;25.77;;;10.27;;
69750;SDS011;57335;52.288;6.056;2022-11-20T05:19:37;24.75;;;9.60;;
69750;SDS011;57335;52.288;6.056;2022-11-20T05:24:30;19.83;;;8.35;;
69750;SDS011;57335;52.288;6.056;2022-11-20T05:26:56;25.50;;;9.15;;
69750;SDS011;57335;52.288;6.056;2022-11-20T05:29:23;17.85;;;7.97;;
69750;SDS011;57335;52.288;6.056;2022-11-20T05:31:49;22.77;;;9.70;;
69750;SDS011;57335;52.288;6.056;2022-11-20T05:34:15;22.58;;;9.52;;
69750;SDS011;57335;52.288;6.056;2022-11-20T05:36:42;25.98;;;9.45;;
69750;SDS011;57335;52.288;6.056;2022-11-20T05:39:08;21.67;;;8.57;;
69750;SDS011;57335;52.288;6.056;2022-11-20T05:41:34;23.05;;;8.65;;
69750;SDS011;57335;52.288;6.056;2022-11-20T05:44:01;19.13;;;8.35;;
69750;SDS011;57335;52.288;6.056;2022-11-20T05:46:27;20.27;;;9.25;;
69750;SDS011;57335;52.288;6.056;2022-11-20T05:48:55;21.45;;;8.85;;
69750;SDS011;57335;52.288;6.056;2022-11-20T05:51:22;22.88;;;9.20;;
69750;SDS011;57335;52.288;6.056;2022-11-20T05:53:48;22.15;;;9.00;;
69750;SDS011;57335;52.288;6.056;2022-11-20T05:56:16;17.25;;;7.15;;
69750;SDS011;57335;52.288;6.056;2022-11-20T05:58:44;21.67;;;8.68;;
69750;SDS011;57335;52.288;6.056;2022-11-20T06:01:15;22.77;;;9.45;;
69750;SDS011;57335;52.288;6.056;2022-11-20T06:03:44;20.05;;;8.70;;
69750;SDS011;57335;52.288;6.056;2022-11-20T06:06:11;20.83;;;8.27;;
69750;SDS011;57335;52.288;6.056;2022-11-20T06:08:38;20.92;;;9.50;;
69750;SDS011;57335;52.288;6.056;2022-11-20T06:11:08;27.55;;;9.35;;
69750;SDS011;57335;52.288;6.056;2022-11-20T06:13:35;19.95;;;7.88;;
69750;SDS011;57335;52.288;6.056;2022-11-20T06:16:07;20.83;;;7.78;;
69750;SDS011;57335;52.288;6.056;2022-11-20T06:18:33;26.50;;;8.30;;
69750;SDS011;57335;52.288;6.056;2022-11-20T06:21:01;18.00;;;8.23;;
69750;SDS011;57335;52.288;6.056;2022-11-20T06:23:29;20.63;;;8.07;;
69750;SDS011;57335;52.288;6.056;2022-11-20T06:25:57;23.00;;;8.13;;
69750;SDS011;57335;52.288;6.056;2022-11-20T06:28:27;18.42;;;8.23;;
69750;SDS011;57335;52.288;6.056;2022-11-20T06:30:53;25.00;;;9.13;;
69750;SDS011;57335;52.288;6.056;2022-11-20T06:33:19;20.75;;;7.80;;
69750;SDS011;57335;52.288;6.056;2022-11-20T06:35:46;20.23;;;8.93;;
69750;SDS011;57335;52.288;6.056;2022-11-20T06:38:12;20.10;;;8.07;;
69750;SDS011;57335;52.288;6.056;2022-11-20T06:40:41;22.67;;;8.02;;
69750;SDS011;57335;52.288;6.056;2022-11-20T06:43:09;22.20;;;8.68;;
69750;SDS011;57335;52.288;6.056;2022-11-20T06:45:36;23.67;;;8.57;;
69750;SDS011;57335;52.288;6.056;2022-11-20T06:48:02;19.50;;;7.43;;
69750;SDS011;57335;52.288;6.056;2022-11-20T06:50:29;19.73;;;7.60;;
69750;SDS011;57335;52.288;6.056;2022-11-20T06:52:55;19.58;;;7.95;;
69750;SDS011;57335;52.288;6.056;2022-11-20T06:55:22;19.30;;;7.50;;
69750;SDS011;57335;52.288;6.056;2022-11-20T06:57:48;19.75;;;8.35;;
69750;SDS011;57335;52.288;6.056;2022-11-20T07:00:21;15.73;;;7.50;;
69750;SDS011;57335;52.288;6.056;2022-11-20T07:02:47;18.33;;;6.85;;
69750;SDS011;57335;52.288;6.056;2022-11-20T07:05:13;17.67;;;7.70;;
69750;SDS011;57335;52.288;6.056;2022-11-20T07:07:40;21.10;;;8.32;;
69750;SDS011;57335;52.288;6.056;2022-11-20T07:10:06;18.35;;;7.32;;
69750;SDS011;57335;52.288;6.056;2022-11-20T07:12:33;15.55;;;6.07;;
69750;SDS011;57335;52.288;6.056;2022-11-20T07:14:59;21.35;;;7.72;;
69750;SDS011;57335;52.288;6.056;2022-11-20T07:17:26;21.73;;;7.88;;
69750;SDS011;57335;52.288;6.056;2022-11-20T07:19:52;18.08;;;6.78;;
69750;SDS011;57335;52.288;6.056;2022-11-20T07:22:18;17.10;;;7.22;;
69750;SDS011;57335;52.288;6.056;2022-11-20T07:24:45;18.60;;;6.47;;
69750;SDS011;57335;52.288;6.056;2022-11-20T07:27:11;18.67;;;7.50;;
69750;SDS011;57335;52.288;6.056;2022-11-20T07:29:37;24.42;;;8.40;;
69750;SDS011;57335;52.288;6.056;2022-11-20T07:32:04;19.17;;;7.80;;
69750;SDS011;57335;52.288;6.056;2022-11-20T07:34:30;16.38;;;6.63;;
69750;SDS011;57335;52.288;6.056;2022-11-20T07:36:56;21.42;;;8.82;;
69750;SDS011;57335;52.288;6.056;2022-11-20T07:39:23;22.52;;;8.45;;
69750;SDS011;57335;52.288;6.056;2022-11-20T07:41:49;23.23;;;9.27;;
69750;SDS011;57335;52.288;6.056;2022-11-20T07:44:15;22.42;;;9.07;;
69750;SDS011;57335;52.288;6.056;2022-11-20T07:46:42;20.10;;;9.00;;
69750;SDS011;57335;52.288;6.056;2022-11-20T07:49:08;21.58;;;9.15;;
69750;SDS011;57335;52.288;6.056;2022-11-20T07:51:34;23.13;;;8.90;;
69750;SDS011;57335;52.288;6.056;2022-11-20T07:54:01;23.10;;;8.45;;
69750;SDS011;57335;52.288;6.056;2022-11-20T07:56:27;21.50;;;9.15;;
69750;SDS011;57335;52.288;6.056;2022-11-20T07:58:53;28.90;;;10.63;;
69750;SDS011;57335;52.288;6.056;2022-11-20T08:01:20;24.35;;;10.32;;
69750;SDS011;57335;52.288;6.056;2022-11-20T08:03:46;24.33;;;10.40;;
69750;SDS011;57335;52.288;6.056;2022-11-20T08:06:13;25.38;;;10.10;;
69750;SDS011;57335;52.288;6.056;2022-11-20T08:08:39;26.15;;;11.02;;
69750;SDS011;57335;52.288;6.056;2022-11-20T08:11:08;29.98;;;10.93;;
69750;SDS011;57335;52.288;6.056;2022-11-20T08:13:34;27.45;;;11.30;;
69750;SDS011;57335;52.288;6.056;2022-11-20T08:16:00;25.00;;;10.13;;
69750;SDS011;57335;52.288;6.056;2022-11-20T08:18:27;29.88;;;10.85;;
69750;SDS011;57335;52.288;6.056;2022-11-20T08:20:57;26.13;;;11.52;;
69750;SDS011;57335;52.288;6.056;2022-11-20T08:23:23;23.17;;;10.13;;
69750;SDS011;57335;52.288;6.056;2022-11-20T08:25:49;22.38;;;8.82;;
69750;SDS011;57335;52.288;6.056;2022-11-20T08:28:16;26.95;;;11.70;;
69750;SDS011;57335;52.288;6.056;2022-11-20T08:30:47;28.20;;;10.40;;
69750;SDS011;57335;52.288;6.056;2022-11-20T08:33:13;28.02;;;11.75;;
69750;SDS011;57335;52.288;6.056;2022-11-20T08:35:40;27.25;;;11.52;;
69750;SDS011;57335;52.288;6.056;2022-11-20T08:38:06;26.50;;;11.27;;
69750;SDS011;57335;52.288;6.056;2022-11-20T08:40:33;28.92;;;11.95;;
69750;SDS011;57335;52.288;6.056;2022-11-20T08:42:59;23.20;;;10.20;;
69750;SDS011;57335;52.288;6.056;2022-11-20T08:45:26;24.60;;;10.75;;
69750;SDS011;57335;52.288;6.056;2022-11-20T08:48:02;24.50;;;10.23;;
69750;SDS011;57335;52.288;6.056;2022-11-20T08:50:30;26.70;;;11.65;;
69750;SDS011;57335;52.288;6.056;2022-11-20T08:53:01;24.67;;;11.57;;
69750;SDS011;57335;52.288;6.056;2022-11-20T08:55:31;29.95;;;11.90;;
69750;SDS011;57335;52.288;6.056;2022-11-20T08:57:58;26.10;;;10.90;;
69750;SDS011;57335;52.288;6.056;2022-11-20T09:00:24;26.10;;;10.63;;
69750;SDS011;57335;52.288;6.056;2022-11-20T09:05:17;26.00;;;10.55;;
69750;SDS011;57335;52.288;6.056;2022-11-20T09:07:43;25.02;;;11.02;;
69750;SDS011;57335;52.288;6.056;2022-11-20T09:10:09;23.45;;;10.63;;
69750;SDS011;57335;52.288;6.056;2022-11-20T09:12:49;25.25;;;10.40;;
69750;SDS011;57335;52.288;6.056;2022-11-20T09:15:16;25.52;;;10.80;;
69750;SDS011;57335;52.288;6.056;2022-11-20T09:17:42;23.95;;;10.55;;
69750;SDS011;57335;52.288;6.056;2022-11-20T09:20:16;27.13;;;10.93;;
69750;SDS011;57335;52.288;6.056;2022-11-20T09:22:42;23.55;;;10.95;;
69750;SDS011;57335;52.288;6.056;2022-11-20T09:25:08;27.20;;;11.98;;
69750;SDS011;57335;52.288;6.056;2022-11-20T09:27:35;25.63;;;11.63;;
69750;SDS011;57335;52.288;6.056;2022-11-20T09:30:01;29.45;;;12.10;;
69750;SDS011;57335;52.288;6.056;2022-11-20T09:32:28;26.48;;;12.27;;
69750;SDS011;57335;52.288;6.056;2022-11-20T09:34:54;29.90;;;12.77;;
69750;SDS011;57335;52.288;6.056;2022-11-20T09:37:21;28.40;;;11.52;;
69750;SDS011;57335;52.288;6.056;2022-11-20T09:39:47;27.55;;;12.10;;
69750;SDS011;57335;52.288;6.056;2022-11-20T09:42:33;29.77;;;12.35;;
69750;SDS011;57335;52.288;6.056;2022-11-20T09:48:18;33.13;;;13.52;;
69750;SDS011;57335;52.288;6.056;2022-11-20T09:56:27;29.25;;;12.10;;
69750;SDS011;57335;52.288;6.056;2022-11-20T09:58:55;27.27;;;11.93;;
69750;SDS011;57335;52.288;6.056;2022-11-20T10:01:26;25.48;;;11.80;;
69750;SDS011;57335;52.288;6.056;2022-11-20T10:04:00;25.00;;;11.23;;
69750;SDS011;57335;52.288;6.056;2022-11-20T10:06:33;30.77;;;12.15;;
69750;SDS011;57335;52.288;6.056;2022-11-20T10:20:02;28.23;;;12.18;;
69750;SDS011;57335;52.288;6.056;2022-11-20T10:25:39;26.60;;;11.52;;
69750;SDS011;57335;52.288;6.056;2022-11-20T10:31:07;24.77;;;11.20;;
69750;SDS011;57335;52.288;6.056;2022-11-20T10:33:41;28.70;;;12.63;;
69750;SDS011;57335;52.288;6.056;2022-11-20T10:36:34;26.55;;;12.20;;
69750;SDS011;57335;52.288;6.056;2022-11-20T10:39:11;25.70;;;12.10;;
69750;SDS011;57335;52.288;6.056;2022-11-20T10:41:47;28.38;;;12.77;;
69750;SDS011;57335;52.288;6.056;2022-11-20T10:44:19;24.10;;;10.90;;
69750;SDS011;57335;52.288;6.056;2022-11-20T10:46:47;26.50;;;12.32;;
69750;SDS011;57335;52.288;6.056;2022-11-20T10:49:33;26.67;;;11.25;;
69750;SDS011;57335;52.288;6.056;2022-11-20T10:52:16;32.25;;;12.23;;
69750;SDS011;57335;52.288;6.056;2022-11-20T10:54:57;24.73;;;11.18;;
69750;SDS011;57335;52.288;6.056;2022-11-20T11:00:33;27.60;;;11.63;;
69750;SDS011;57335;52.288;6.056;2022-11-20T11:02:59;28.23;;;12.60;;
69750;SDS011;57335;52.288;6.056;2022-11-20T11:05:46;23.88;;;10.93;;
69750;SDS011;57335;52.288;6.056;2022-11-20T11:08:20;24.40;;;11.70;;
69750;SDS011;57335;52.288;6.056;2022-11-20T11:13:26;24.17;;;11.15;;
69750;SDS011;57335;52.288;6.056;2022-11-20T11:15:53;22.30;;;11.38;;
69750;SDS011;57335;52.288;6.056;2022-11-20T11:18:27;25.92;;;12.23;;
69750;SDS011;57335;52.288;6.056;2022-11-20T11:21:02;25.75;;;11.45;;
69750;SDS011;57335;52.288;6.056;2022-11-20T11:23:36;24.90;;;10.90;;
69750;SDS011;57335;52.288;6.056;2022-11-20T11:26:06;27.98;;;11.27;;
69750;SDS011;57335;52.288;6.056;2022-11-20T11:28:53;22.75;;;10.77;;
69750;SDS011;57335;52.288;6.056;2022-11-20T11:31:36;23.70;;;11.07;;
69750;SDS011;57335;52.288;6.056;2022-11-20T11:34:03;24.38;;;11.10;;
69750;SDS011;57335;52.288;6.056;2022-11-20T11:36:31;25.85;;;11.82;;
69750;SDS011;57335;52.288;6.056;2022-11-20T11:38:59;27.15;;;11.07;;
69750;SDS011;57335;52.288;6.056;2022-11-20T11:41:31;23.75;;;11.10;;
69750;SDS011;57335;52.288;6.056;2022-11-20T11:46:54;26.60;;;12.30;;
69750;SDS011;57335;52.288;6.056;2022-11-20T11:49:23;26.10;;;11.45;;
69750;SDS011;57335;52.288;6.056;2022-11-20T11:52:04;24.20;;;10.60;;
69750;SDS011;57335;52.288;6.056;2022-11-20T11:54:40;24.88;;;11.45;;
69750;SDS011;57335;52.288;6.056;2022-11-20T12:05:23;21.67;;;10.40;;
69750;SDS011;57335;52.288;6.056;2022-11-20T12:08:27;22.25;;;10.52;;
69750;SDS011;57335;52.288;6.056;2022-11-20T12:11:06;23.40;;;10.23;;
69750;SDS011;57335;52.288;6.056;2022-11-20T12:14:09;22.63;;;10.73;;
69750;SDS011;57335;52.288;6.056;2022-11-20T12:16:43;22.08;;;10.50;;
69750;SDS011;57335;52.288;6.056;2022-11-20T12:21:43;19.52;;;8.52;;
69750;SDS011;57335;52.288;6.056;2022-11-20T12:24:42;21.63;;;9.85;;
69750;SDS011;57335;52.288;6.056;2022-11-20T12:27:27;18.02;;;8.13;;
69750;SDS011;57335;52.288;6.056;2022-11-20T12:30:15;20.48;;;9.95;;
69750;SDS011;57335;52.288;6.056;2022-11-20T12:44:34;22.02;;;10.32;;
69750;SDS011;57335;52.288;6.056;2022-11-20T12:50:46;21.52;;;10.05;;
69750;SDS011;57335;52.288;6.056;2022-11-20T12:53:54;21.17;;;9.70;;
69750;SDS011;57335;52.288;6.056;2022-11-20T12:57:16;21.35;;;10.20;;
69750;SDS011;57335;52.288;6.056;2022-11-20T12:59:56;22.25;;;11.10;;
69750;SDS011;57335;52.288;6.056;2022-11-20T13:02:40;21.17;;;10.52;;
69750;SDS011;57335;52.288;6.056;2022-11-20T13:07:51;22.05;;;10.98;;
69750;SDS011;57335;52.288;6.056;2022-11-20T13:13:19;22.90;;;11.50;;
69750;SDS011;57335;52.288;6.056;2022-11-20T13:15:57;23.92;;;11.40;;
69750;SDS011;57335;52.288;6.056;2022-11-20T13:18:35;24.13;;;11.32;;
69750;SDS011;57335;52.288;6.056;2022-11-20T13:21:18;23.65;;;11.20;;
69750;SDS011;57335;52.288;6.056;2022-11-20T13:23:47;29.00;;;12.43;;
69750;SDS011;57335;52.288;6.056;2022-11-20T13:26:15;26.35;;;12.27;;
69750;SDS011;57335;52.288;6.056;2022-11-20T13:28:46;25.63;;;12.10;;
69750;SDS011;57335;52.288;6.056;2022-11-20T13:34:01;24.58;;;11.98;;
69750;SDS011;57335;52.288;6.056;2022-11-20T13:36:30;23.33;;;12.52;;
69750;SDS011;57335;52.288;6.056;2022-11-20T13:38:57;21.63;;;10.73;;
69750;SDS011;57335;52.288;6.056;2022-11-20T13:41:29;20.45;;;10.57;;
69750;SDS011;57335;52.288;6.056;2022-11-20T13:47:03;22.08;;;11.13;;
69750;SDS011;57335;52.288;6.056;2022-11-20T13:49:45;22.13;;;10.60;;
69750;SDS011;57335;52.288;6.056;2022-11-20T14:00:23;24.08;;;10.60;;
69750;SDS011;57335;52.288;6.056;2022-11-20T14:05:35;18.42;;;8.75;;
69750;SDS011;57335;52.288;6.056;2022-11-20T14:08:04;18.85;;;8.60;;
69750;SDS011;57335;52.288;6.056;2022-11-20T14:10:33;20.35;;;9.45;;
69750;SDS011;57335;52.288;6.056;2022-11-20T14:15:35;20.45;;;9.88;;
69750;SDS011;57335;52.288;6.056;2022-11-20T14:18:14;19.30;;;9.70;;
69750;SDS011;57335;52.288;6.056;2022-11-20T14:20:47;21.25;;;9.93;;
69750;SDS011;57335;52.288;6.056;2022-11-20T14:25:55;19.30;;;9.32;;
69750;SDS011;57335;52.288;6.056;2022-11-20T14:28:25;21.27;;;10.25;;
69750;SDS011;57335;52.288;6.056;2022-11-20T14:30:53;21.00;;;10.57;;
69750;SDS011;57335;52.288;6.056;2022-11-20T14:33:20;24.15;;;10.98;;
69750;SDS011;57335;52.288;6.056;2022-11-20T14:35:48;22.55;;;10.65;;
69750;SDS011;57335;52.288;6.056;2022-11-20T14:38:18;21.98;;;10.30;;
69750;SDS011;57335;52.288;6.056;2022-11-20T14:40:49;24.92;;;10.32;;
69750;SDS011;57335;52.288;6.056;2022-11-20T14:45:49;26.00;;;11.18;;
69750;SDS011;57335;52.288;6.056;2022-11-20T14:48:23;23.60;;;11.35;;
69750;SDS011;57335;52.288;6.056;2022-11-20T14:50:56;27.55;;;12.13;;
69750;SDS011;57335;52.288;6.056;2022-11-20T14:53:23;26.52;;;12.25;;
69750;SDS011;57335;52.288;6.056;2022-11-20T14:56:00;23.20;;;10.07;;
69750;SDS011;57335;52.288;6.056;2022-11-20T14:58:29;26.73;;;12.20;;
69750;SDS011;57335;52.288;6.056;2022-11-20T15:01:04;25.42;;;10.48;;
69750;SDS011;57335;52.288;6.056;2022-11-20T15:03:35;27.90;;;12.02;;
69750;SDS011;57335;52.288;6.056;2022-11-20T15:06:07;32.03;;;14.18;;
69750;SDS011;57335;52.288;6.056;2022-11-20T15:08:37;33.22;;;14.40;;
69750;SDS011;57335;52.288;6.056;2022-11-20T15:13:42;31.83;;;14.05;;
69750;SDS011;57335;52.288;6.056;2022-11-20T15:18:42;28.13;;;12.68;;
69750;SDS011;57335;52.288;6.056;2022-11-20T15:21:16;29.65;;;12.85;;
69750;SDS011;57335;52.288;6.056;2022-11-20T15:23:44;32.45;;;13.82;;
69750;SDS011;57335;52.288;6.056;2022-11-20T15:26:11;32.80;;;14.82;;
69750;SDS011;57335;52.288;6.056;2022-11-20T15:28:45;30.80;;;13.63;;
69750;SDS011;57335;52.288;6.056;2022-11-20T15:31:15;30.48;;;13.52;;
69750;SDS011;57335;52.288;6.056;2022-11-20T15:33:43;33.25;;;13.60;;
69750;SDS011;57335;52.288;6.056;2022-11-20T15:36:10;31.25;;;13.18;;
69750;SDS011;57335;52.288;6.056;2022-11-20T15:41:03;28.63;;;12.23;;
69750;SDS011;57335;52.288;6.056;2022-11-20T15:43:30;25.45;;;10.77;;
69750;SDS011;57335;52.288;6.056;2022-11-20T15:48:26;28.75;;;11.80;;
69750;SDS011;57335;52.288;6.056;2022-11-20T15:50:59;28.52;;;11.45;;
69750;SDS011;57335;52.288;6.056;2022-11-20T15:53:29;30.20;;;12.40;;
69750;SDS011;57335;52.288;6.056;2022-11-20T15:58:22;39.72;;;16.13;;
69750;SDS011;57335;52.288;6.056;2022-11-20T16:00:48;37.83;;;15.45;;
69750;SDS011;57335;52.288;6.056;2022-11-20T16:03:16;36.92;;;15.40;;
69750;SDS011;57335;52.288;6.056;2022-11-20T16:05:43;37.28;;;14.93;;
69750;SDS011;57335;52.288;6.056;2022-11-20T16:08:10;35.85;;;15.75;;
69750;SDS011;57335;52.288;6.056;2022-11-20T16:10:37;31.20;;;13.23;;
69750;SDS011;57335;52.288;6.056;2022-11-20T16:13:04;36.55;;;14.13;;
69750;SDS011;57335;52.288;6.056;2022-11-20T16:15:40;40.90;;;16.23;;
69750;SDS011;57335;52.288;6.056;2022-11-20T16:20:34;39.65;;;15.43;;
69750;SDS011;57335;52.288;6.056;2022-11-20T16:25:27;33.75;;;14.68;;
69750;SDS011;57335;52.288;6.056;2022-11-20T16:27:54;35.85;;;14.55;;
69750;SDS011;57335;52.288;6.056;2022-11-20T16:30:20;42.33;;;17.73;;
69750;SDS011;57335;52.288;6.056;2022-11-20T16:32:47;35.75;;;14.48;;
69750;SDS011;57335;52.288;6.056;2022-11-20T16:37:40;33.33;;;13.45;;
69750;SDS011;57335;52.288;6.056;2022-11-20T16:42:33;42.97;;;16.40;;
69750;SDS011;57335;52.288;6.056;2022-11-20T16:45:00;47.00;;;18.40;;
69750;SDS011;57335;52.288;6.056;2022-11-20T16:49:53;32.60;;;11.88;;
69750;SDS011;57335;52.288;6.056;2022-11-20T16:54:46;37.08;;;15.18;;
69750;SDS011;57335;52.288;6.056;2022-11-20T16:59:38;46.00;;;18.17;;